Archival Weather

Phoenix Deer Valley

Phoenix, Arizona (KDVT)

Report from: Monday, August 15, 2022 6:53 AM MST
Current time: Sunday, May 19, 2024 1:59 AM MST

Current weather – Weather history – Daily summaries
Weather forecast

Temperature26.7°C (80.1°F)
Heat index28.6°C (83.5°F)
Dew point21.1°C (70.0°F)
Winds Calm
Visibility10 mi. (16.1 km)
Clouds Sky clear
Altimeter29.88 in.Hg (1012 mB)
Relative humidity71 %
Density altitude1,821 ft. (555 m)
Sea-level pressure100.9 kPa (1009 mB, 29.80 in.Hg)
Remarks Fully automated report
Automated weather observing station with precipitation discriminator
Flight conditions Visual Meteorological Conditions
Raw dataKDVT 151353Z AUTO 00000KT 10SM CLR 27/21 A2988 RMK AO2 SLP093 T02670211
An error has occurred. This application may no longer respond until reloaded. Reload 🗙